RYR284 LFLL-LIMC
Flight info
| Callsign | RYR284 |
|---|---|
| Flight time | 1h 14m |
| Altitude | 21000 |
| Route | RISOR T47 LAMDO/N0415F230 T47 GEMLA DCT VANAS DCT MEDAM DCT NITAM DCT MOGBO DCT KODOK DCT TOP/N0393F190 M135 ASTIG |
| Aircraft | B738/M-SDE2E3FGHIRWXY/LB1 |
Departure
| Time | 2026-05-05 20:34 |
|---|---|
| Airport | Lyon Saint-Exupéry Airport (LFLL) |
Arrival
| Time | 2026-05-05 21:48 |
|---|---|
| Airport | Milan Malpensa International Airport (LIMC) |
| Time | Latitude | Longitude | Altitude | Speed | Heading |
|---|---|---|---|---|---|
| 2026-05-05 20:11 | 45.72362 | 5.08234 | 796 ft | 0 kts | 357° |
| 2026-05-05 20:26 | 45.72358 | 5.08234 | 796 ft | 0 kts | 358° |
| 2026-05-05 20:27 | 45.72346 | 5.08234 | 796 ft | 2 kts | 0° |
| 2026-05-05 20:27 | 45.72330 | 5.08233 | 796 ft | 2 kts | 11° |
| 2026-05-05 20:27 | 45.72316 | 5.08222 | 796 ft | 2 kts | 78° |
| 2026-05-05 20:27 | 45.72316 | 5.08204 | 796 ft | 0 kts | 103° |
| 2026-05-05 20:28 | 45.72316 | 5.08203 | 796 ft | 0 kts | 103° |
| 2026-05-05 20:29 | 45.72313 | 5.08222 | 796 ft | 6 kts | 99° |
| 2026-05-05 20:29 | 45.72326 | 5.08329 | 796 ft | 15 kts | 76° |
| 2026-05-05 20:30 | 45.72396 | 5.08409 | 796 ft | 15 kts | 356° |
| 2026-05-05 20:30 | 45.72518 | 5.08393 | 795 ft | 21 kts | 355° |
| 2026-05-05 20:30 | 45.72694 | 5.08371 | 790 ft | 29 kts | 355° |
| 2026-05-05 20:30 | 45.72888 | 5.08349 | 789 ft | 27 kts | 355° |
| 2026-05-05 20:31 | 45.73070 | 5.08327 | 786 ft | 25 kts | 355° |
| 2026-05-05 20:31 | 45.73240 | 5.08306 | 783 ft | 24 kts | 355° |
| 2026-05-05 20:31 | 45.73399 | 5.08286 | 779 ft | 23 kts | 355° |
| 2026-05-05 20:31 | 45.73558 | 5.08268 | 779 ft | 23 kts | 355° |
| 2026-05-05 20:32 | 45.73698 | 5.08283 | 776 ft | 19 kts | 34° |
| 2026-05-05 20:32 | 45.73719 | 5.08447 | 777 ft | 15 kts | 103° |
| 2026-05-05 20:32 | 45.73697 | 5.08570 | 776 ft | 0 kts | 104° |
| 2026-05-05 20:32 | 45.73697 | 5.08572 | 776 ft | 1 kts | 104° |
| 2026-05-05 20:33 | 45.73687 | 5.08626 | 776 ft | 10 kts | 105° |
| 2026-05-05 20:33 | 45.73624 | 5.08722 | 778 ft | 17 kts | 175° |
| 2026-05-05 20:33 | 45.73380 | 5.08754 | 783 ft | 67 kts | 175° |
| 2026-05-05 20:33 | 45.72689 | 5.08838 | 790 ft | 131 kts | 175° |
| 2026-05-05 20:34 | 45.71601 | 5.08966 | 857 ft | 179 kts | 175° |
| 2026-05-05 20:34 | 45.70371 | 5.09143 | 1824 ft | 168 kts | 174° |
| 2026-05-05 20:34 | 45.69262 | 5.09285 | 2900 ft | 158 kts | 178° |
| 2026-05-05 20:34 | 45.68106 | 5.09412 | 3430 ft | 183 kts | 178° |
| 2026-05-05 20:35 | 45.66733 | 5.09565 | 3704 ft | 212 kts | 177° |
| 2026-05-05 20:35 | 45.65181 | 5.09747 | 4039 ft | 232 kts | 177° |
| 2026-05-05 20:35 | 45.63535 | 5.09944 | 4710 ft | 242 kts | 177° |
| 2026-05-05 20:35 | 45.61849 | 5.10275 | 5455 ft | 252 kts | 165° |
| 2026-05-05 20:36 | 45.60248 | 5.11378 | 6242 ft | 261 kts | 145° |
| 2026-05-05 20:36 | 45.59010 | 5.13241 | 7091 ft | 266 kts | 124° |
| 2026-05-05 20:36 | 45.58270 | 5.15732 | 7893 ft | 274 kts | 107° |
| 2026-05-05 20:36 | 45.57813 | 5.18397 | 8728 ft | 278 kts | 105° |
| 2026-05-05 20:37 | 45.57395 | 5.21117 | 9573 ft | 282 kts | 104° |
| 2026-05-05 20:37 | 45.56979 | 5.23864 | 10375 ft | 285 kts | 105° |
| 2026-05-05 20:37 | 45.56549 | 5.26646 | 11150 ft | 288 kts | 105° |
| 2026-05-05 20:37 | 45.56108 | 5.29456 | 11933 ft | 292 kts | 105° |
| 2026-05-05 20:38 | 45.55646 | 5.32355 | 12393 ft | 309 kts | 105° |
| 2026-05-05 20:38 | 45.55162 | 5.35364 | 12947 ft | 320 kts | 105° |
| 2026-05-05 20:38 | 45.54658 | 5.38481 | 13700 ft | 325 kts | 105° |
| 2026-05-05 20:38 | 45.54147 | 5.41629 | 14419 ft | 328 kts | 105° |
| 2026-05-05 20:39 | 45.53629 | 5.44815 | 15136 ft | 331 kts | 106° |
| 2026-05-05 20:39 | 45.53104 | 5.48030 | 15864 ft | 334 kts | 107° |
| 2026-05-05 20:39 | 45.52572 | 5.51280 | 16568 ft | 338 kts | 107° |
| 2026-05-05 20:39 | 45.52033 | 5.54566 | 17243 ft | 343 kts | 107° |
| 2026-05-05 20:40 | 45.51485 | 5.57897 | 17938 ft | 347 kts | 107° |
| 2026-05-05 20:40 | 45.50937 | 5.61265 | 18568 ft | 351 kts | 105° |
| 2026-05-05 20:40 | 45.50802 | 5.64781 | 19157 ft | 362 kts | 88° |
| 2026-05-05 20:40 | 45.51125 | 5.68349 | 19813 ft | 365 kts | 86° |
| 2026-05-05 20:41 | 45.51490 | 5.71948 | 20424 ft | 368 kts | 85° |
| 2026-05-05 20:41 | 45.51859 | 5.75577 | 20928 ft | 372 kts | 86° |
| 2026-05-05 20:41 | 45.52222 | 5.79300 | 20931 ft | 388 kts | 86° |
| 2026-05-05 20:41 | 45.52588 | 5.83189 | 20948 ft | 403 kts | 86° |
| 2026-05-05 20:42 | 45.52960 | 5.87215 | 20959 ft | 417 kts | 86° |
| 2026-05-05 20:42 | 45.53342 | 5.91388 | 20953 ft | 431 kts | 86° |
| 2026-05-05 20:42 | 45.53733 | 5.95684 | 20952 ft | 443 kts | 86° |
| 2026-05-05 20:42 | 45.54306 | 6.01812 | 20952 ft | 458 kts | 85° |
| 2026-05-05 20:43 | 45.55177 | 6.10824 | 20922 ft | 458 kts | 85° |
| 2026-05-05 20:43 | 45.56012 | 6.19880 | 20928 ft | 463 kts | 86° |
| 2026-05-05 20:43 | 45.56734 | 6.29057 | 20937 ft | 465 kts | 90° |
| 2026-05-05 20:43 | 45.56028 | 6.38106 | 20936 ft | 457 kts | 108° |
| 2026-05-05 20:44 | 45.53740 | 6.46498 | 20936 ft | 453 kts | 116° |
| 2026-05-05 20:44 | 45.51336 | 6.54796 | 20936 ft | 453 kts | 115° |
| 2026-05-05 20:44 | 45.49015 | 6.63014 | 20920 ft | 452 kts | 115° |
| 2026-05-05 20:44 | 45.46542 | 6.71226 | 20936 ft | 449 kts | 123° |
| 2026-05-05 20:45 | 45.37650 | 6.82799 | 20956 ft | 434 kts | 149° |
| 2026-05-05 20:45 | 45.33656 | 6.86739 | 20924 ft | 436 kts | 148° |
| 2026-05-05 20:45 | 45.31178 | 6.89220 | 20961 ft | 436 kts | 148° |
| 2026-05-05 20:46 | 45.28694 | 6.91707 | 20955 ft | 437 kts | 148° |
| 2026-05-05 20:46 | 45.26225 | 6.94235 | 20943 ft | 438 kts | 146° |
| 2026-05-05 20:46 | 45.23963 | 6.97155 | 20971 ft | 442 kts | 139° |
| 2026-05-05 20:46 | 45.21787 | 7.00242 | 20970 ft | 443 kts | 139° |
| 2026-05-05 20:47 | 45.19616 | 7.03322 | 20979 ft | 438 kts | 139° |
| 2026-05-05 20:47 | 45.17516 | 7.06277 | 20749 ft | 415 kts | 140° |
| 2026-05-05 20:47 | 45.15458 | 7.09128 | 20503 ft | 415 kts | 140° |
| 2026-05-05 20:47 | 45.13374 | 7.11989 | 20250 ft | 419 kts | 140° |
| 2026-05-05 20:48 | 45.11284 | 7.14871 | 19995 ft | 419 kts | 139° |
| 2026-05-05 20:48 | 45.09400 | 7.18014 | 19731 ft | 422 kts | 130° |
| 2026-05-05 20:48 | 45.07742 | 7.21434 | 19503 ft | 421 kts | 129° |
| 2026-05-05 20:48 | 45.06091 | 7.24854 | 19256 ft | 420 kts | 129° |
| 2026-05-05 20:49 | 45.04427 | 7.28259 | 19063 ft | 420 kts | 130° |
| 2026-05-05 20:49 | 45.02762 | 7.31634 | 18989 ft | 411 kts | 130° |
| 2026-05-05 20:49 | 45.01188 | 7.34818 | 18984 ft | 381 kts | 130° |
| 2026-05-05 20:49 | 44.99857 | 7.37505 | 18983 ft | 358 kts | 130° |
| 2026-05-05 20:50 | 44.98609 | 7.40447 | 18967 ft | 341 kts | 121° |
| 2026-05-05 20:50 | 44.97769 | 7.43536 | 18985 ft | 338 kts | 110° |
| 2026-05-05 20:50 | 44.97248 | 7.46808 | 18997 ft | 344 kts | 107° |
| 2026-05-05 20:50 | 44.96772 | 7.50134 | 18782 ft | 347 kts | 107° |
| 2026-05-05 20:51 | 44.96300 | 7.53469 | 18543 ft | 344 kts | 107° |
| 2026-05-05 20:51 | 44.95826 | 7.56762 | 18296 ft | 340 kts | 107° |
| 2026-05-05 20:51 | 44.95346 | 7.60021 | 18044 ft | 339 kts | 107° |
| 2026-05-05 20:51 | 44.94860 | 7.63272 | 17768 ft | 338 kts | 107° |
| 2026-05-05 20:52 | 44.94374 | 7.66522 | 17505 ft | 338 kts | 107° |
| 2026-05-05 20:52 | 44.93984 | 7.69798 | 17239 ft | 339 kts | 103° |
| 2026-05-05 20:52 | 44.93689 | 7.73096 | 16977 ft | 339 kts | 101° |
| 2026-05-05 20:52 | 44.93406 | 7.76396 | 16713 ft | 338 kts | 102° |
| 2026-05-05 20:53 | 44.93111 | 7.79689 | 16462 ft | 337 kts | 102° |
| 2026-05-05 20:53 | 44.92807 | 7.82964 | 16201 ft | 336 kts | 102° |
| 2026-05-05 20:53 | 44.92535 | 7.86182 | 16015 ft | 334 kts | 97° |
| 2026-05-05 20:53 | 44.92572 | 7.89516 | 15990 ft | 336 kts | 90° |
| 2026-05-05 20:54 | 44.92716 | 7.92810 | 15983 ft | 337 kts | 90° |
| 2026-05-05 20:54 | 44.92871 | 7.96111 | 15979 ft | 337 kts | 90° |
| 2026-05-05 20:54 | 44.93021 | 7.99409 | 15970 ft | 337 kts | 90° |
| 2026-05-05 20:54 | 44.93165 | 8.02714 | 15972 ft | 337 kts | 90° |
| 2026-05-05 20:55 | 44.93302 | 8.06009 | 15978 ft | 337 kts | 90° |
| 2026-05-05 20:55 | 44.93436 | 8.09310 | 15981 ft | 337 kts | 90° |
| 2026-05-05 20:55 | 44.93567 | 8.12604 | 15974 ft | 337 kts | 90° |
| 2026-05-05 20:55 | 44.93695 | 8.15862 | 15971 ft | 337 kts | 90° |
| 2026-05-05 20:56 | 44.93826 | 8.19208 | 15976 ft | 337 kts | 90° |
| 2026-05-05 20:56 | 44.93952 | 8.22467 | 15974 ft | 337 kts | 90° |
| 2026-05-05 20:56 | 44.94078 | 8.25776 | 15973 ft | 337 kts | 90° |
| 2026-05-05 20:56 | 44.94223 | 8.29081 | 15974 ft | 339 kts | 86° |
| 2026-05-05 20:57 | 44.94696 | 8.32351 | 15975 ft | 341 kts | 77° |
| 2026-05-05 20:57 | 44.95368 | 8.35574 | 15976 ft | 342 kts | 75° |
| 2026-05-05 20:57 | 44.96073 | 8.38783 | 15977 ft | 343 kts | 75° |
| 2026-05-05 20:57 | 44.96758 | 8.42010 | 15977 ft | 343 kts | 76° |
| 2026-05-05 20:58 | 44.97414 | 8.45244 | 15971 ft | 343 kts | 77° |
| 2026-05-05 20:58 | 44.98057 | 8.48492 | 15973 ft | 343 kts | 77° |
| 2026-05-05 20:58 | 44.98712 | 8.51733 | 15966 ft | 344 kts | 72° |
| 2026-05-05 20:58 | 44.99909 | 8.54642 | 15927 ft | 343 kts | 47° |
| 2026-05-05 20:59 | 45.01749 | 8.56698 | 15598 ft | 336 kts | 29° |
| 2026-05-05 20:59 | 45.03889 | 8.57879 | 15066 ft | 329 kts | 3° |
| 2026-05-05 20:59 | 45.06128 | 8.57672 | 14532 ft | 320 kts | 344° |
| 2026-05-05 20:59 | 45.08283 | 8.56980 | 14048 ft | 317 kts | 343° |
| 2026-05-05 21:00 | 45.10414 | 8.56250 | 13531 ft | 314 kts | 342° |
| 2026-05-05 21:00 | 45.12500 | 8.55558 | 13484 ft | 298 kts | 343° |
| 2026-05-05 21:00 | 45.14476 | 8.54952 | 13847 ft | 289 kts | 344° |
| 2026-05-05 21:00 | 45.16467 | 8.54370 | 14228 ft | 295 kts | 344° |
| 2026-05-05 21:01 | 45.18503 | 8.53793 | 14600 ft | 301 kts | 345° |
| 2026-05-05 21:01 | 45.20577 | 8.53213 | 14974 ft | 306 kts | 345° |
| 2026-05-05 21:01 | 45.22716 | 8.52872 | 15326 ft | 316 kts | 1° |
| 2026-05-05 21:01 | 45.24863 | 8.53670 | 15708 ft | 325 kts | 26° |
| 2026-05-05 21:02 | 45.26655 | 8.55648 | 16004 ft | 333 kts | 51° |
| 2026-05-05 21:02 | 45.27690 | 8.58379 | 15992 ft | 339 kts | 78° |
| 2026-05-05 21:02 | 45.27809 | 8.61677 | 15999 ft | 333 kts | 105° |
| 2026-05-05 21:02 | 45.26945 | 8.64635 | 15995 ft | 321 kts | 131° |
| 2026-05-05 21:03 | 45.25361 | 8.66753 | 16001 ft | 310 kts | 153° |
| 2026-05-05 21:03 | 45.23410 | 8.67901 | 16000 ft | 301 kts | 171° |
| 2026-05-05 21:03 | 45.21364 | 8.68513 | 15984 ft | 301 kts | 173° |
| 2026-05-05 21:03 | 45.19307 | 8.69091 | 15981 ft | 302 kts | 173° |
| 2026-05-05 21:04 | 45.17243 | 8.69688 | 15961 ft | 302 kts | 173° |
| 2026-05-05 21:04 | 45.15186 | 8.70293 | 15959 ft | 302 kts | 174° |
| 2026-05-05 21:04 | 45.13129 | 8.70286 | 15970 ft | 293 kts | 197° |
| 2026-05-05 21:04 | 45.11290 | 8.69142 | 15971 ft | 289 kts | 217° |
| 2026-05-05 21:05 | 45.09887 | 8.67139 | 15971 ft | 288 kts | 236° |
| 2026-05-05 21:05 | 45.09078 | 8.64544 | 15974 ft | 292 kts | 255° |
| 2026-05-05 21:05 | 45.08999 | 8.61667 | 15966 ft | 298 kts | 276° |
| 2026-05-05 21:05 | 45.09724 | 8.58883 | 15969 ft | 308 kts | 298° |
| 2026-05-05 21:06 | 45.11215 | 8.56657 | 15968 ft | 319 kts | 321° |
| 2026-05-05 21:06 | 45.13241 | 8.55376 | 15975 ft | 329 kts | 342° |
| 2026-05-05 21:06 | 45.15485 | 8.54687 | 15993 ft | 331 kts | 345° |
| 2026-05-05 21:06 | 45.17752 | 8.54052 | 15989 ft | 332 kts | 345° |
| 2026-05-05 21:07 | 45.20018 | 8.53398 | 15989 ft | 333 kts | 344° |
| 2026-05-05 21:07 | 45.22334 | 8.52805 | 15984 ft | 336 kts | 354° |
| 2026-05-05 21:07 | 45.24656 | 8.53268 | 16000 ft | 342 kts | 18° |
| 2026-05-05 21:07 | 45.26709 | 8.54952 | 15997 ft | 344 kts | 42° |
| 2026-05-05 21:08 | 45.28177 | 8.57600 | 15997 ft | 342 kts | 66° |
| 2026-05-05 21:08 | 45.28835 | 8.60804 | 15995 ft | 336 kts | 89° |
| 2026-05-05 21:08 | 45.28616 | 8.64006 | 16000 ft | 328 kts | 112° |
| 2026-05-05 21:08 | 45.27607 | 8.66837 | 16003 ft | 318 kts | 134° |
| 2026-05-05 21:09 | 45.26020 | 8.68955 | 16006 ft | 310 kts | 151° |
| 2026-05-05 21:09 | 45.24107 | 8.70266 | 15993 ft | 303 kts | 168° |
| 2026-05-05 21:09 | 45.22066 | 8.70963 | 15994 ft | 302 kts | 173° |
| 2026-05-05 21:09 | 45.20013 | 8.71542 | 15984 ft | 303 kts | 173° |
| 2026-05-05 21:10 | 45.17948 | 8.72119 | 15962 ft | 303 kts | 173° |
| 2026-05-05 21:10 | 45.15880 | 8.72718 | 15962 ft | 303 kts | 173° |
| 2026-05-05 21:10 | 45.13819 | 8.73329 | 15959 ft | 303 kts | 172° |
| 2026-05-05 21:10 | 45.11760 | 8.73946 | 15960 ft | 302 kts | 172° |
| 2026-05-05 21:11 | 45.09698 | 8.74499 | 15956 ft | 299 kts | 181° |
| 2026-05-05 21:11 | 45.07674 | 8.74170 | 15973 ft | 291 kts | 200° |
| 2026-05-05 21:11 | 45.05871 | 8.72926 | 15966 ft | 288 kts | 217° |
| 2026-05-05 21:11 | 45.04425 | 8.70996 | 15972 ft | 287 kts | 232° |
| 2026-05-05 21:12 | 45.03457 | 8.68529 | 15968 ft | 289 kts | 249° |
| 2026-05-05 21:12 | 45.03098 | 8.65720 | 15967 ft | 294 kts | 267° |
| 2026-05-05 21:12 | 45.03426 | 8.62846 | 15971 ft | 302 kts | 285° |
| 2026-05-05 21:12 | 45.04033 | 8.61058 | 15970 ft | 308 kts | 298° |
| 2026-05-05 21:13 | 45.05487 | 8.58783 | 15976 ft | 318 kts | 317° |
| 2026-05-05 21:13 | 45.07435 | 8.57237 | 15968 ft | 328 kts | 338° |
| 2026-05-05 21:13 | 45.09655 | 8.56435 | 15977 ft | 331 kts | 343° |
| 2026-05-05 21:13 | 45.11918 | 8.55787 | 15966 ft | 330 kts | 345° |
| 2026-05-05 21:14 | 45.14118 | 8.55175 | 15948 ft | 314 kts | 344° |
| 2026-05-05 21:14 | 45.16207 | 8.54572 | 15965 ft | 299 kts | 343° |
| 2026-05-05 21:14 | 45.18213 | 8.53971 | 15978 ft | 291 kts | 343° |
| 2026-05-05 21:14 | 45.20188 | 8.53369 | 15990 ft | 291 kts | 343° |
| 2026-05-05 21:15 | 45.22191 | 8.52848 | 15994 ft | 298 kts | 355° |
| 2026-05-05 21:15 | 45.24268 | 8.53323 | 15728 ft | 311 kts | 21° |
| 2026-05-05 21:15 | 45.26058 | 8.55065 | 15217 ft | 316 kts | 49° |
| 2026-05-05 21:15 | 45.27143 | 8.57721 | 14742 ft | 311 kts | 76° |
| 2026-05-05 21:16 | 45.27324 | 8.60713 | 14261 ft | 302 kts | 103° |
| 2026-05-05 21:16 | 45.26633 | 8.63456 | 13798 ft | 293 kts | 127° |
| 2026-05-05 21:16 | 45.25272 | 8.65520 | 13274 ft | 284 kts | 148° |
| 2026-05-05 21:16 | 45.23543 | 8.66752 | 12748 ft | 276 kts | 168° |
| 2026-05-05 21:17 | 45.21681 | 8.67362 | 12255 ft | 276 kts | 172° |
| 2026-05-05 21:17 | 45.19803 | 8.67899 | 12042 ft | 271 kts | 172° |
| 2026-05-05 21:17 | 45.17991 | 8.68422 | 11964 ft | 261 kts | 171° |
| 2026-05-05 21:17 | 45.16251 | 8.68935 | 11957 ft | 253 kts | 171° |
| 2026-05-05 21:18 | 45.14539 | 8.69445 | 11963 ft | 252 kts | 171° |
| 2026-05-05 21:18 | 45.12815 | 8.69959 | 11975 ft | 254 kts | 171° |
| 2026-05-05 21:18 | 45.11084 | 8.70452 | 11976 ft | 254 kts | 177° |
| 2026-05-05 21:18 | 45.09355 | 8.70233 | 11978 ft | 249 kts | 199° |
| 2026-05-05 21:19 | 45.07801 | 8.69201 | 11964 ft | 247 kts | 216° |
| 2026-05-05 21:19 | 45.06574 | 8.67515 | 11970 ft | 247 kts | 234° |
| 2026-05-05 21:19 | 45.05816 | 8.65361 | 11748 ft | 255 kts | 252° |
| 2026-05-05 21:19 | 45.05626 | 8.62808 | 11243 ft | 268 kts | 274° |
| 2026-05-05 21:20 | 45.06162 | 8.60274 | 11012 ft | 269 kts | 296° |
| 2026-05-05 21:20 | 45.07319 | 8.58245 | 10968 ft | 263 kts | 316° |
| 2026-05-05 21:20 | 45.08861 | 8.56879 | 10960 ft | 264 kts | 338° |
| 2026-05-05 21:20 | 45.10653 | 8.56218 | 10978 ft | 268 kts | 345° |
| 2026-05-05 21:21 | 45.12484 | 8.55669 | 10968 ft | 270 kts | 346° |
| 2026-05-05 21:21 | 45.14319 | 8.55129 | 10966 ft | 269 kts | 346° |
| 2026-05-05 21:21 | 45.16151 | 8.54584 | 10979 ft | 268 kts | 346° |
| 2026-05-05 21:21 | 45.17974 | 8.54034 | 10984 ft | 267 kts | 346° |
| 2026-05-05 21:22 | 45.19788 | 8.53485 | 10986 ft | 266 kts | 346° |
| 2026-05-05 21:22 | 45.21600 | 8.52951 | 10983 ft | 266 kts | 350° |
| 2026-05-05 21:22 | 45.23438 | 8.53179 | 10993 ft | 268 kts | 20° |
| 2026-05-05 21:22 | 45.24994 | 8.54601 | 10991 ft | 269 kts | 49° |
| 2026-05-05 21:23 | 45.25926 | 8.56875 | 10915 ft | 271 kts | 76° |
| 2026-05-05 21:23 | 45.26029 | 8.59551 | 10526 ft | 274 kts | 105° |
| 2026-05-05 21:23 | 45.25234 | 8.61951 | 10177 ft | 269 kts | 134° |
| 2026-05-05 21:23 | 45.23775 | 8.63539 | 9830 ft | 265 kts | 158° |
| 2026-05-05 21:24 | 45.22019 | 8.64273 | 9448 ft | 264 kts | 170° |
| 2026-05-05 21:24 | 45.20213 | 8.64786 | 9065 ft | 265 kts | 171° |
| 2026-05-05 21:24 | 45.18435 | 8.65296 | 8990 ft | 255 kts | 170° |
| 2026-05-05 21:24 | 45.16734 | 8.65795 | 8949 ft | 244 kts | 170° |
| 2026-05-05 21:25 | 45.15078 | 8.66205 | 8953 ft | 239 kts | 181° |
| 2026-05-05 21:25 | 45.13493 | 8.65727 | 8978 ft | 238 kts | 206° |
| 2026-05-05 21:25 | 45.12140 | 8.64359 | 8985 ft | 247 kts | 228° |
| 2026-05-05 21:25 | 45.11182 | 8.62152 | 8566 ft | 280 kts | 251° |
| 2026-05-05 21:26 | 45.11032 | 8.59375 | 8070 ft | 291 kts | 280° |
| 2026-05-05 21:26 | 45.11932 | 8.56759 | 7558 ft | 299 kts | 310° |
| 2026-05-05 21:26 | 45.13551 | 8.54950 | 7121 ft | 304 kts | 331° |
| 2026-05-05 21:26 | 45.15553 | 8.54030 | 6770 ft | 301 kts | 349° |
| 2026-05-05 21:27 | 45.17583 | 8.53541 | 6396 ft | 292 kts | 351° |
| 2026-05-05 21:27 | 45.19576 | 8.53097 | 6047 ft | 288 kts | 351° |
| 2026-05-05 21:27 | 45.21519 | 8.52647 | 5990 ft | 280 kts | 350° |
| 2026-05-05 21:27 | 45.23423 | 8.52186 | 5991 ft | 276 kts | 349° |
| 2026-05-05 21:28 | 45.25313 | 8.51716 | 5984 ft | 274 kts | 349° |
| 2026-05-05 21:28 | 45.27148 | 8.51256 | 5971 ft | 261 kts | 349° |
| 2026-05-05 21:28 | 45.28895 | 8.50817 | 5968 ft | 249 kts | 349° |
| 2026-05-05 21:28 | 45.30562 | 8.50535 | 5961 ft | 236 kts | 6° |
| 2026-05-05 21:29 | 45.32041 | 8.51307 | 5992 ft | 225 kts | 39° |
| 2026-05-05 21:29 | 45.33064 | 8.52945 | 6011 ft | 223 kts | 63° |
| 2026-05-05 21:29 | 45.33575 | 8.55012 | 6002 ft | 222 kts | 79° |
| 2026-05-05 21:29 | 45.33874 | 8.57163 | 5992 ft | 222 kts | 82° |
| 2026-05-05 21:30 | 45.34155 | 8.59325 | 5986 ft | 223 kts | 82° |
| 2026-05-05 21:30 | 45.34441 | 8.61491 | 5987 ft | 223 kts | 81° |
| 2026-05-05 21:30 | 45.34586 | 8.63662 | 5971 ft | 220 kts | 102° |
| 2026-05-05 21:30 | 45.33948 | 8.65561 | 5996 ft | 213 kts | 136° |
| 2026-05-05 21:31 | 45.32730 | 8.66672 | 6001 ft | 209 kts | 163° |
| 2026-05-05 21:31 | 45.31316 | 8.67160 | 6009 ft | 209 kts | 171° |
| 2026-05-05 21:31 | 45.29877 | 8.67537 | 5998 ft | 211 kts | 171° |
| 2026-05-05 21:31 | 45.28429 | 8.67916 | 5997 ft | 212 kts | 171° |
| 2026-05-05 21:32 | 45.26976 | 8.68301 | 5994 ft | 213 kts | 171° |
| 2026-05-05 21:32 | 45.25522 | 8.68689 | 5995 ft | 213 kts | 170° |
| 2026-05-05 21:32 | 45.24064 | 8.69084 | 5990 ft | 213 kts | 170° |
| 2026-05-05 21:32 | 45.22609 | 8.69480 | 5989 ft | 213 kts | 170° |
| 2026-05-05 21:33 | 45.21178 | 8.69871 | 5986 ft | 212 kts | 170° |
| 2026-05-05 21:33 | 45.19731 | 8.70266 | 5991 ft | 212 kts | 170° |
| 2026-05-05 21:33 | 45.18285 | 8.70663 | 5965 ft | 211 kts | 170° |
| 2026-05-05 21:33 | 45.16848 | 8.71059 | 5968 ft | 210 kts | 170° |
| 2026-05-05 21:34 | 45.15408 | 8.71454 | 5966 ft | 210 kts | 170° |
| 2026-05-05 21:34 | 45.13971 | 8.71849 | 5968 ft | 210 kts | 170° |
| 2026-05-05 21:34 | 45.12539 | 8.72241 | 5968 ft | 210 kts | 170° |
| 2026-05-05 21:34 | 45.11103 | 8.72635 | 5964 ft | 210 kts | 170° |
| 2026-05-05 21:35 | 45.09669 | 8.73028 | 5967 ft | 210 kts | 171° |
| 2026-05-05 21:35 | 45.08232 | 8.73421 | 5969 ft | 210 kts | 170° |
| 2026-05-05 21:35 | 45.06794 | 8.73814 | 5971 ft | 210 kts | 171° |
| 2026-05-05 21:35 | 45.05356 | 8.74206 | 5969 ft | 211 kts | 171° |
| 2026-05-05 21:36 | 45.03961 | 8.74811 | 5952 ft | 213 kts | 149° |
| 2026-05-05 21:36 | 45.02996 | 8.76375 | 5966 ft | 216 kts | 115° |
| 2026-05-05 21:36 | 45.02826 | 8.78483 | 5963 ft | 222 kts | 80° |
| 2026-05-05 21:36 | 45.03530 | 8.80406 | 5968 ft | 225 kts | 45° |
| 2026-05-05 21:37 | 45.04877 | 8.81509 | 5982 ft | 226 kts | 17° |
| 2026-05-05 21:37 | 45.06402 | 8.82107 | 5975 ft | 229 kts | 14° |
| 2026-05-05 21:37 | 45.07954 | 8.82666 | 5975 ft | 231 kts | 13° |
| 2026-05-05 21:37 | 45.09521 | 8.83221 | 5970 ft | 233 kts | 13° |
| 2026-05-05 21:38 | 45.11092 | 8.83773 | 5964 ft | 233 kts | 13° |
| 2026-05-05 21:38 | 45.12666 | 8.84324 | 5963 ft | 233 kts | 13° |
| 2026-05-05 21:38 | 45.14234 | 8.84871 | 5960 ft | 232 kts | 13° |
| 2026-05-05 21:38 | 45.15796 | 8.85416 | 5960 ft | 230 kts | 13° |
| 2026-05-05 21:39 | 45.17351 | 8.85958 | 5957 ft | 229 kts | 13° |
| 2026-05-05 21:39 | 45.18877 | 8.86491 | 5965 ft | 228 kts | 13° |
| 2026-05-05 21:39 | 45.20443 | 8.86986 | 5946 ft | 228 kts | 4° |
| 2026-05-05 21:39 | 45.22017 | 8.86647 | 5447 ft | 239 kts | 340° |
| 2026-05-05 21:40 | 45.23602 | 8.85915 | 5095 ft | 237 kts | 341° |
| 2026-05-05 21:40 | 45.25164 | 8.85251 | 4862 ft | 232 kts | 342° |
| 2026-05-05 21:40 | 45.26699 | 8.84639 | 4598 ft | 227 kts | 343° |
| 2026-05-05 21:40 | 45.28205 | 8.84066 | 4328 ft | 222 kts | 344° |
| 2026-05-05 21:41 | 45.29685 | 8.83521 | 4088 ft | 218 kts | 345° |
| 2026-05-05 21:41 | 45.31152 | 8.82993 | 4034 ft | 219 kts | 345° |
| 2026-05-05 21:41 | 45.32607 | 8.82477 | 3982 ft | 210 kts | 345° |
| 2026-05-05 21:41 | 45.33969 | 8.81999 | 3973 ft | 193 kts | 346° |
| 2026-05-05 21:42 | 45.35221 | 8.81563 | 3960 ft | 180 kts | 346° |
| 2026-05-05 21:42 | 45.36429 | 8.81144 | 3998 ft | 180 kts | 346° |
| 2026-05-05 21:42 | 45.37630 | 8.80725 | 4004 ft | 176 kts | 344° |
| 2026-05-05 21:42 | 45.38799 | 8.80235 | 3991 ft | 176 kts | 344° |
| 2026-05-05 21:43 | 45.39988 | 8.79803 | 4000 ft | 177 kts | 346° |
| 2026-05-05 21:43 | 45.41184 | 8.79428 | 3954 ft | 174 kts | 348° |
| 2026-05-05 21:43 | 45.42345 | 8.79091 | 3795 ft | 166 kts | 348° |
| 2026-05-05 21:43 | 45.43463 | 8.78775 | 3594 ft | 161 kts | 349° |
| 2026-05-05 21:44 | 45.44570 | 8.78466 | 3313 ft | 160 kts | 349° |
| 2026-05-05 21:44 | 45.45654 | 8.78165 | 3213 ft | 158 kts | 349° |
| 2026-05-05 21:44 | 45.46743 | 8.77863 | 3164 ft | 161 kts | 349° |
| 2026-05-05 21:44 | 45.47859 | 8.77554 | 3053 ft | 165 kts | 349° |
| 2026-05-05 21:45 | 45.48977 | 8.77243 | 3003 ft | 162 kts | 350° |
| 2026-05-05 21:45 | 45.50080 | 8.76937 | 2994 ft | 162 kts | 350° |
| 2026-05-05 21:45 | 45.51201 | 8.76627 | 2842 ft | 164 kts | 350° |
| 2026-05-05 21:45 | 45.52319 | 8.76316 | 2629 ft | 163 kts | 350° |
| 2026-05-05 21:46 | 45.53433 | 8.76007 | 2409 ft | 162 kts | 351° |
| 2026-05-05 21:46 | 45.54532 | 8.75703 | 2188 ft | 160 kts | 350° |
| 2026-05-05 21:46 | 45.55624 | 8.75400 | 1978 ft | 160 kts | 351° |
| 2026-05-05 21:46 | 45.56715 | 8.75097 | 1762 ft | 159 kts | 351° |
| 2026-05-05 21:47 | 45.57778 | 8.74803 | 1529 ft | 156 kts | 350° |
| 2026-05-05 21:47 | 45.58823 | 8.74513 | 1305 ft | 150 kts | 349° |
| 2026-05-05 21:47 | 45.59846 | 8.74229 | 1098 ft | 149 kts | 349° |
| 2026-05-05 21:47 | 45.60864 | 8.73947 | 907 ft | 149 kts | 349° |
| 2026-05-05 21:48 | 45.61877 | 8.73666 | 775 ft | 148 kts | 348° |
| 2026-05-05 21:48 | 45.62791 | 8.73408 | 736 ft | 108 kts | 349° |
| 2026-05-05 21:48 | 45.63328 | 8.73265 | 734 ft | 58 kts | 349° |
| 2026-05-05 21:48 | 45.63658 | 8.73128 | 738 ft | 40 kts | 328° |
| 2026-05-05 21:49 | 45.63827 | 8.72889 | 735 ft | 25 kts | 304° |
| 2026-05-05 21:49 | 45.63852 | 8.72836 | 735 ft | 0 kts | 304° |
| 2026-05-05 21:50 | 45.63854 | 8.72831 | 735 ft | 3 kts | 304° |
| 2026-05-05 21:51 | 45.63890 | 8.72757 | 734 ft | 15 kts | 304° |
| 2026-05-05 21:51 | 45.63954 | 8.72590 | 734 ft | 21 kts | 278° |
| 2026-05-05 21:51 | 45.63933 | 8.72386 | 734 ft | 20 kts | 259° |
| 2026-05-05 21:51 | 45.63916 | 8.72188 | 736 ft | 20 kts | 266° |
| 2026-05-05 21:52 | 45.63882 | 8.71860 | 736 ft | 13 kts | 226° |
| 2026-05-05 21:52 | 45.63804 | 8.71825 | 736 ft | 9 kts | 172° |
| 2026-05-05 21:52 | 45.63769 | 8.71834 | 736 ft | 9 kts | 169° |
| 2026-05-05 21:53 | 45.63711 | 8.71850 | 734 ft | 8 kts | 169° |
| 2026-05-05 21:53 | 45.63655 | 8.71866 | 736 ft | 8 kts | 168° |
| 2026-05-05 21:53 | 45.63593 | 8.71884 | 736 ft | 11 kts | 169° |
| 2026-05-05 21:53 | 45.63501 | 8.71907 | 736 ft | 16 kts | 169° |
| 2026-05-05 21:54 | 45.63383 | 8.71940 | 736 ft | 17 kts | 169° |
| 2026-05-05 21:54 | 45.63266 | 8.71973 | 736 ft | 17 kts | 168° |
| 2026-05-05 21:54 | 45.63153 | 8.72004 | 736 ft | 16 kts | 169° |
| 2026-05-05 21:54 | 45.63060 | 8.72029 | 736 ft | 15 kts | 169° |
| 2026-05-05 21:55 | 45.62991 | 8.71944 | 735 ft | 15 kts | 258° |
| 2026-05-05 21:55 | 45.62971 | 8.71802 | 734 ft | 14 kts | 259° |
| 2026-05-05 21:55 | 45.62959 | 8.71710 | 735 ft | 4 kts | 259° |
| 2026-05-05 21:55 | 45.62954 | 8.71671 | 735 ft | 4 kts | 259° |
| 2026-05-05 21:56 | 45.62948 | 8.71631 | 735 ft | 5 kts | 259° |
| 2026-05-05 21:56 | 45.62939 | 8.71564 | 735 ft | 9 kts | 259° |
| 2026-05-05 21:56 | 45.62903 | 8.71509 | 735 ft | 9 kts | 178° |
| 2026-05-05 21:56 | 45.62852 | 8.71522 | 735 ft | 5 kts | 169° |
| 2026-05-05 21:57 | 45.62851 | 8.71522 | 735 ft | 0 kts | 169° |